createdAt,value
2019-05-23T00:01:17.817Z,8.63
2019-05-23T00:03:50.301Z,9.10
2019-05-23T00:06:24.222Z,10.33
2019-05-23T00:08:55.517Z,9.10
2019-05-23T00:11:29.913Z,9.10
2019-05-23T00:14:01.942Z,9.13
2019-05-23T00:16:32.148Z,9.57
2019-05-23T00:19:02.963Z,10.23
2019-05-23T00:21:33.345Z,10.33
2019-05-23T00:24:04.485Z,10.10
2019-05-23T00:26:36.281Z,9.00
2019-05-23T00:29:10.463Z,10.00
2019-05-23T00:31:41.539Z,9.70
2019-05-23T00:34:11.654Z,9.50
2019-05-23T00:36:42.174Z,10.00
2019-05-23T00:39:13.559Z,10.00
2019-05-23T00:41:43.850Z,9.60
2019-05-23T00:44:13.828Z,10.47
2019-05-23T00:46:44.913Z,11.23
2019-05-23T00:49:16.597Z,11.60
2019-05-23T00:51:46.869Z,12.00
2019-05-23T00:54:19.177Z,10.10
2019-05-23T00:56:49.924Z,10.07
2019-05-23T00:59:26.957Z,10.40
2019-05-23T01:01:53.959Z,11.07
2019-05-23T01:04:24.661Z,11.20
2019-05-23T01:06:56.292Z,10.70
2019-05-23T01:09:27.732Z,10.87
2019-05-23T01:12:01.290Z,11.80
2019-05-23T01:14:31.576Z,9.77
2019-05-23T01:17:02.025Z,9.87
2019-05-23T01:19:37.138Z,10.10
2019-05-23T01:22:14.404Z,10.70
2019-05-23T01:24:51.792Z,9.77
2019-05-23T01:27:22.139Z,9.20
2019-05-23T01:29:52.546Z,9.40
2019-05-23T01:32:24.831Z,8.10
2019-05-23T01:34:57.049Z,8.90
2019-05-23T01:37:26.717Z,8.50
2019-05-23T01:39:57.502Z,8.43
2019-05-23T01:42:30.864Z,8.57
2019-05-23T01:45:03.618Z,8.20
2019-05-23T01:47:33.873Z,7.50
2019-05-23T01:50:04.690Z,7.80
2019-05-23T01:52:34.991Z,7.87
2019-05-23T01:55:06.522Z,8.10
2019-05-23T01:57:36.336Z,8.60
2019-05-23T02:00:11.447Z,7.33
2019-05-23T02:02:43.724Z,7.10
2019-05-23T02:05:14.472Z,7.80
2019-05-23T02:07:44.065Z,8.20
2019-05-23T02:10:14.317Z,7.23
2019-05-23T02:12:45.975Z,6.67
2019-05-23T02:15:16.921Z,7.37
2019-05-23T02:17:47.720Z,7.83
2019-05-23T02:20:20.413Z,8.33
2019-05-23T02:22:50.493Z,7.80
2019-05-23T02:25:21.886Z,7.33
2019-05-23T02:27:57.774Z,8.33
2019-05-23T02:30:34.560Z,8.60
2019-05-23T02:33:00.311Z,8.03
2019-05-23T02:35:29.941Z,7.67
2019-05-23T02:38:18.085Z,8.67
2019-05-23T02:40:49.689Z,8.13
2019-05-23T02:43:23.484Z,8.10
2019-05-23T02:46:01.083Z,7.97
2019-05-23T02:48:46.652Z,8.00
2019-05-23T02:51:26.497Z,8.20
2019-05-23T02:53:58.647Z,7.23
2019-05-23T02:56:34.648Z,8.57
2019-05-23T02:59:16.187Z,9.47
2019-05-23T03:02:35.797Z,8.17
2019-05-23T03:05:10.589Z,9.40
2019-05-23T03:07:40.769Z,8.23
2019-05-23T03:10:11.176Z,8.10
2019-05-23T03:12:43.925Z,8.67
2019-05-23T03:15:16.612Z,9.37
2019-05-23T03:17:51.826Z,9.30
2019-05-23T03:20:23.044Z,9.47
2019-05-23T03:23:06.339Z,9.77
2019-05-23T03:25:40.766Z,9.40
2019-05-23T03:28:14.168Z,10.10
2019-05-23T03:30:48.665Z,10.10
2019-05-23T03:33:19.199Z,9.00
2019-05-23T03:35:51.427Z,8.67
2019-05-23T03:38:22.152Z,9.40
2019-05-23T03:40:52.474Z,9.23
2019-05-23T03:43:22.736Z,9.67
2019-05-23T03:45:54.051Z,9.87
2019-05-23T03:48:24.397Z,9.83
2019-05-23T03:50:55.643Z,8.77
2019-05-23T03:53:32.177Z,9.70
2019-05-23T03:56:04.411Z,10.60
2019-05-23T03:58:38.016Z,8.97
2019-05-23T04:01:10.919Z,9.33
2019-05-23T04:03:42.765Z,8.90
2019-05-23T04:06:13.909Z,8.67
2019-05-23T04:08:43.567Z,8.77
2019-05-23T04:11:15.520Z,8.13
2019-05-23T04:13:45.372Z,13.20
2019-05-23T04:16:15.152Z,10.30
2019-05-23T04:18:44.838Z,9.10
2019-05-23T04:21:15.825Z,8.50
2019-05-23T04:23:45.886Z,8.97
2019-05-23T04:26:15.864Z,9.80
2019-05-23T04:28:45.360Z,9.50
2019-05-23T04:31:14.954Z,10.10
2019-05-23T04:33:45.913Z,9.37
2019-05-23T04:36:17.001Z,10.30
2019-05-23T04:38:47.364Z,9.27
2019-05-23T04:41:16.972Z,9.60
2019-05-23T04:43:46.554Z,10.20
2019-05-23T04:46:16.137Z,9.60
2019-05-23T04:48:47.839Z,10.30
2019-05-23T04:51:17.661Z,10.10
2019-05-23T04:53:47.549Z,10.50
2019-05-23T04:56:17.248Z,11.43
2019-05-23T04:58:48.064Z,10.40
2019-05-23T05:01:20.699Z,10.20
2019-05-23T05:03:52.874Z,11.67
2019-05-23T05:06:22.727Z,9.60
2019-05-23T05:08:55.698Z,10.97
2019-05-23T05:11:30.183Z,11.13
2019-05-23T05:13:57.339Z,11.83
2019-05-23T05:16:27.194Z,12.53
2019-05-23T05:18:56.966Z,12.77
2019-05-23T05:21:26.562Z,13.70
2019-05-23T05:23:56.157Z,13.43
2019-05-23T05:26:25.871Z,13.07
2019-05-23T05:28:56.202Z,13.47
2019-05-23T05:31:25.909Z,13.73
2019-05-23T05:33:56.473Z,12.80
2019-05-23T05:36:26.512Z,13.73
2019-05-23T05:38:56.327Z,12.90
2019-05-23T05:41:26.947Z,13.80
2019-05-23T05:43:56.848Z,15.00
2019-05-23T05:46:26.664Z,16.17
2019-05-23T05:48:57.851Z,15.07
2019-05-23T05:51:28.533Z,14.73
2019-05-23T05:53:59.056Z,15.80
2019-05-23T05:56:29.904Z,15.90
2019-05-23T05:58:59.489Z,15.80
2019-05-23T06:01:34.097Z,15.40
2019-05-23T06:04:01.734Z,16.83
2019-05-23T06:06:35.881Z,16.97
2019-05-23T06:09:12.438Z,15.80
2019-05-23T06:11:42.278Z,16.73
2019-05-23T06:14:12.091Z,15.83
2019-05-23T06:16:44.998Z,17.03
2019-05-23T06:19:15.240Z,18.40
2019-05-23T06:21:46.147Z,17.33
2019-05-23T06:24:16.746Z,15.57
2019-05-23T06:26:46.890Z,14.13
2019-05-23T06:29:16.621Z,13.27
2019-05-23T06:31:47.247Z,12.67
2019-05-23T06:34:17.849Z,13.50
2019-05-23T06:36:47.519Z,12.97
2019-05-23T06:39:18.105Z,10.27
2019-05-23T06:41:48.323Z,9.20
2019-05-23T06:44:19.924Z,8.30
2019-05-23T06:46:50.131Z,9.27
2019-05-23T06:49:19.749Z,8.50
2019-05-23T06:51:49.405Z,7.80
2019-05-23T06:54:19.111Z,7.00
2019-05-23T06:56:48.758Z,9.27
2019-05-23T06:59:18.853Z,7.80
2019-05-23T07:01:51.291Z,6.67
2019-05-23T07:04:22.666Z,6.03
2019-05-23T07:06:52.846Z,5.40
2019-05-23T07:09:23.424Z,4.90
2019-05-23T07:11:56.922Z,3.80
2019-05-23T07:14:27.932Z,3.40
2019-05-23T07:16:59.561Z,4.30
2019-05-23T07:19:29.332Z,4.13
2019-05-23T07:21:59.037Z,3.53
2019-05-23T07:24:29.250Z,3.97
2019-05-23T07:26:58.976Z,4.23
2019-05-23T07:29:31.478Z,3.80
2019-05-23T07:32:05.120Z,3.40
2019-05-23T07:34:35.766Z,3.93
2019-05-23T07:37:06.631Z,3.40
2019-05-23T07:39:36.755Z,3.30
2019-05-23T07:42:06.611Z,3.00
2019-05-23T07:44:47.953Z,3.47
2019-05-23T07:47:10.506Z,3.30
2019-05-23T07:49:40.303Z,3.43
2019-05-23T07:52:09.915Z,2.63
2019-05-23T07:54:49.830Z,3.70
2019-05-23T07:57:20.098Z,2.60
2019-05-23T07:59:50.070Z,3.37
2019-05-23T08:02:28.753Z,2.87
2019-05-23T08:04:59.125Z,3.20
2019-05-23T08:07:32.851Z,2.30
2019-05-23T08:10:02.012Z,2.10
2019-05-23T08:12:32.227Z,2.13
2019-05-23T08:15:01.881Z,2.50
2019-05-23T08:17:33.487Z,2.80
2019-05-23T08:20:03.299Z,2.90
2019-05-23T08:22:33.186Z,2.60
2019-05-23T08:25:02.767Z,2.70
2019-05-23T08:27:34.412Z,2.77
2019-05-23T08:30:07.626Z,2.80
2019-05-23T08:32:37.246Z,2.50
2019-05-23T08:35:08.231Z,3.00
2019-05-23T08:37:38.844Z,2.80
2019-05-23T08:40:10.720Z,3.33
2019-05-23T08:42:40.519Z,3.30
2019-05-23T08:45:11.784Z,2.90
2019-05-23T08:47:41.710Z,3.03
2019-05-23T08:50:12.506Z,2.97
2019-05-23T08:52:42.258Z,2.60
2019-05-23T08:55:21.666Z,2.50
2019-05-23T08:57:54.617Z,3.10
2019-05-23T09:00:29.706Z,2.70
2019-05-23T09:03:00.502Z,2.80
2019-05-23T09:05:31.989Z,2.37
2019-05-23T09:08:02.070Z,2.87
2019-05-23T09:10:35.994Z,2.70
2019-05-23T09:13:07.065Z,2.90
2019-05-23T09:15:37.563Z,2.80
2019-05-23T09:18:08.114Z,2.50
2019-05-23T09:20:38.381Z,3.13
2019-05-23T09:23:09.320Z,2.90
2019-05-23T09:25:40.007Z,2.43
2019-05-23T09:28:11.708Z,3.07
2019-05-23T09:30:41.371Z,2.60
2019-05-23T09:33:11.795Z,2.70
2019-05-23T09:35:41.830Z,2.30
2019-05-23T09:38:13.327Z,2.47
2019-05-23T09:40:44.092Z,2.33
2019-05-23T09:43:14.070Z,2.53
2019-05-23T09:45:43.791Z,2.60
2019-05-23T09:48:20.646Z,2.67
2019-05-23T09:50:50.154Z,2.57
2019-05-23T09:53:19.766Z,2.53
2019-05-23T09:55:51.292Z,2.60
2019-05-23T09:58:20.914Z,2.00
2019-05-23T10:00:50.742Z,2.63
2019-05-23T10:03:21.107Z,2.50
2019-05-23T10:05:51.800Z,2.80
2019-05-23T10:08:21.778Z,3.07
2019-05-23T10:10:53.164Z,2.50
2019-05-23T10:13:38.620Z,2.27
2019-05-23T10:16:03.058Z,2.97
2019-05-23T10:18:33.121Z,2.20
2019-05-23T10:21:02.833Z,2.13
2019-05-23T10:23:34.092Z,2.63
2019-05-23T10:26:03.963Z,2.20
2019-05-23T10:28:33.760Z,2.00
2019-05-23T10:31:07.311Z,2.37
2019-05-23T10:33:37.040Z,2.60
2019-05-23T10:36:08.912Z,1.80
2019-05-23T10:38:41.593Z,1.83
2019-05-23T10:41:11.257Z,2.20
2019-05-23T10:43:41.071Z,1.73
2019-05-23T10:46:12.080Z,2.60
2019-05-23T10:48:42.044Z,2.30
2019-05-23T10:51:12.029Z,2.93
2019-05-23T10:53:45.902Z,2.43
2019-05-23T10:56:20.376Z,2.10
2019-05-23T10:58:48.193Z,2.07
2019-05-23T11:01:21.279Z,2.00
2019-05-23T11:03:51.132Z,1.83
2019-05-23T11:06:21.810Z,2.20
2019-05-23T11:08:51.586Z,1.90
2019-05-23T11:11:21.703Z,1.90
2019-05-23T11:13:51.655Z,2.07
2019-05-23T11:16:26.077Z,2.00
2019-05-23T11:18:55.742Z,1.53
2019-05-23T11:21:25.953Z,1.90
2019-05-23T11:23:56.451Z,2.23
2019-05-23T11:26:26.112Z,1.90
2019-05-23T11:28:57.367Z,1.90
2019-05-23T11:31:31.708Z,2.00
2019-05-23T11:34:03.340Z,2.17
2019-05-23T11:36:36.039Z,2.37
2019-05-23T11:39:05.778Z,2.50
2019-05-23T11:41:38.710Z,1.70
2019-05-23T11:44:08.386Z,1.93
2019-05-23T11:46:42.008Z,2.10
2019-05-23T11:49:11.984Z,1.83
2019-05-23T11:51:43.363Z,2.20
2019-05-23T11:54:13.092Z,2.03
2019-05-23T11:56:43.228Z,2.00
2019-05-23T11:59:13.520Z,1.60
2019-05-23T12:01:51.389Z,1.67
2019-05-23T12:04:22.196Z,1.83
2019-05-23T12:07:03.818Z,1.87
2019-05-23T12:09:33.767Z,2.00
2019-05-23T12:12:03.717Z,2.37
2019-05-23T12:14:33.985Z,1.70
2019-05-23T12:17:05.466Z,2.00
2019-05-23T12:19:35.982Z,2.60
2019-05-23T12:22:06.148Z,1.80
2019-05-23T12:24:36.710Z,2.07
2019-05-23T12:27:06.818Z,1.60
2019-05-23T12:29:38.963Z,1.90
2019-05-23T12:32:10.891Z,1.60
2019-05-23T12:34:40.504Z,1.63
2019-05-23T12:37:19.180Z,2.10
2019-05-23T12:39:43.810Z,1.40
2019-05-23T12:42:13.465Z,1.70
2019-05-23T12:44:43.299Z,1.57
2019-05-23T12:47:14.673Z,2.17
2019-05-23T12:49:46.059Z,4.63
2019-05-23T12:52:16.922Z,2.20
2019-05-23T12:54:47.128Z,1.77
2019-05-23T12:57:16.784Z,1.70
2019-05-23T12:59:47.106Z,1.40
2019-05-23T13:02:18.496Z,2.27
2019-05-23T13:04:48.468Z,1.87
2019-05-23T13:07:34.620Z,2.07
2019-05-23T13:09:50.609Z,2.20
2019-05-23T13:12:21.318Z,2.30
2019-05-23T13:14:53.506Z,1.93
2019-05-23T13:17:22.309Z,2.00
2019-05-23T13:19:52.109Z,1.87
2019-05-23T13:22:22.891Z,1.83
2019-05-23T13:24:53.545Z,1.77
2019-05-23T13:27:23.445Z,1.60
2019-05-23T13:29:53.400Z,1.80
2019-05-23T13:32:23.132Z,1.70
2019-05-23T13:34:52.673Z,2.27
2019-05-23T13:37:24.007Z,1.70
2019-05-23T13:39:53.780Z,1.50
2019-05-23T13:42:23.790Z,2.43
2019-05-23T13:44:53.751Z,1.73
2019-05-23T13:47:23.814Z,1.70
2019-05-23T13:49:53.840Z,1.60
2019-05-23T13:52:23.580Z,1.50
2019-05-23T13:54:53.633Z,2.13
2019-05-23T13:57:23.366Z,2.23
2019-05-23T13:59:53.993Z,1.37
2019-05-23T14:02:24.154Z,1.13
2019-05-23T14:04:54.258Z,1.57
2019-05-23T14:07:25.753Z,1.50
2019-05-23T14:09:55.471Z,1.70
2019-05-23T14:12:26.033Z,1.60
2019-05-23T14:14:57.926Z,1.93
2019-05-23T14:17:27.410Z,1.57
2019-05-23T14:19:57.257Z,1.60
2019-05-23T14:22:27.690Z,1.50
2019-05-23T14:24:57.439Z,1.63
2019-05-23T14:27:40.898Z,1.53
2019-05-23T14:30:18.816Z,1.67
2019-05-23T14:32:52.921Z,1.83
2019-05-23T14:35:24.201Z,1.53
2019-05-23T14:37:55.468Z,1.53
2019-05-23T14:40:27.948Z,1.80
2019-05-23T14:42:59.345Z,1.60
2019-05-23T14:45:43.956Z,1.60
2019-05-23T14:48:31.488Z,2.40
2019-05-23T14:51:06.688Z,2.50
2019-05-23T14:53:43.636Z,2.43
2019-05-23T14:56:14.622Z,1.70
2019-05-23T14:58:45.103Z,1.53
2019-05-23T15:01:15.653Z,1.87
2019-05-23T15:03:46.032Z,2.13
2019-05-23T15:06:15.826Z,1.40
2019-05-23T15:08:51.157Z,1.93
2019-05-23T15:11:17.338Z,1.80
2019-05-23T15:13:47.253Z,2.73
2019-05-23T15:16:17.423Z,2.40
2019-05-23T15:18:48.632Z,2.70
2019-05-23T15:21:18.579Z,1.80
2019-05-23T15:23:48.175Z,1.77
2019-05-23T15:26:22.821Z,1.90
2019-05-23T15:28:49.209Z,1.50
2019-05-23T15:31:19.840Z,1.80
2019-05-23T15:33:53.023Z,1.90
2019-05-23T15:36:22.661Z,1.70
2019-05-23T15:39:08.141Z,1.50
2019-05-23T15:41:23.857Z,1.90
2019-05-23T15:43:53.504Z,1.47
2019-05-23T15:46:23.748Z,2.10
2019-05-23T15:48:54.371Z,2.00
2019-05-23T15:51:28.770Z,1.80
2019-05-23T15:54:08.873Z,1.43
2019-05-23T15:56:40.135Z,2.10
2019-05-23T15:59:14.948Z,1.70
2019-05-23T16:01:46.577Z,2.07
2019-05-23T16:04:24.289Z,1.70
2019-05-23T16:06:55.055Z,1.93
2019-05-23T16:09:29.948Z,1.77
2019-05-23T16:11:59.097Z,2.10
2019-05-23T16:14:29.096Z,1.90
2019-05-23T16:16:58.823Z,1.93
2019-05-23T16:19:31.440Z,1.80
2019-05-23T16:22:02.386Z,2.37
2019-05-23T16:24:32.039Z,2.30
2019-05-23T16:27:06.044Z,1.70
2019-05-23T16:29:37.159Z,1.63
2019-05-23T16:32:06.894Z,1.80
2019-05-23T16:34:38.791Z,1.40
2019-05-23T16:37:10.031Z,1.73
2019-05-23T16:39:47.406Z,1.70
2019-05-23T16:42:13.375Z,1.70
2019-05-23T16:44:42.962Z,1.63
2019-05-23T16:47:12.597Z,1.60
2019-05-23T16:49:42.497Z,1.70
2019-05-23T16:52:12.377Z,1.70
2019-05-23T16:54:43.981Z,2.17
2019-05-23T16:57:30.722Z,1.13
2019-05-23T17:00:20.790Z,1.70
2019-05-23T17:02:51.062Z,1.77
2019-05-23T17:05:26.670Z,1.77
2019-05-23T17:08:04.079Z,1.57
2019-05-23T17:10:36.496Z,2.20
2019-05-23T17:13:12.297Z,1.57
2019-05-23T17:15:49.466Z,2.33
2019-05-23T17:18:36.737Z,2.03
2019-05-23T17:21:08.090Z,2.00
2019-05-23T17:23:39.485Z,1.80
2019-05-23T17:26:20.707Z,2.33
2019-05-23T17:28:52.000Z,2.70
2019-05-23T17:31:25.639Z,2.60
2019-05-23T17:33:59.159Z,1.70
2019-05-23T17:36:28.855Z,2.40
2019-05-23T17:38:58.685Z,1.73
2019-05-23T17:41:30.752Z,1.60
2019-05-23T17:44:00.595Z,1.90
2019-05-23T17:46:30.495Z,1.40
2019-05-23T17:49:00.175Z,1.67
2019-05-23T17:51:30.480Z,1.53
2019-05-23T17:54:00.224Z,2.03
2019-05-23T17:56:33.686Z,1.57
2019-05-23T17:59:03.425Z,2.00
2019-05-23T18:01:33.592Z,2.33
2019-05-23T18:04:06.218Z,1.60
2019-05-23T18:06:36.150Z,2.00
2019-05-23T18:09:09.907Z,1.47
2019-05-23T18:11:39.842Z,1.90
2019-05-23T18:14:10.865Z,1.47
2019-05-23T18:16:42.968Z,1.80
2019-05-23T18:19:12.751Z,1.83
2019-05-23T18:21:44.411Z,1.30
2019-05-23T18:24:15.013Z,1.67
2019-05-23T18:26:44.790Z,1.77
2019-05-23T18:29:14.991Z,1.73
2019-05-23T18:31:47.117Z,1.97
2019-05-23T18:34:16.828Z,1.70
2019-05-23T18:36:46.701Z,1.87
2019-05-23T18:39:17.459Z,2.37
2019-05-23T18:41:47.119Z,2.20
2019-05-23T18:44:17.963Z,2.27
2019-05-23T18:46:55.094Z,2.00
2019-05-23T18:49:26.161Z,1.87
2019-05-23T18:51:56.197Z,1.30
2019-05-23T18:54:25.970Z,1.53
2019-05-23T18:56:56.166Z,1.57
2019-05-23T18:59:26.041Z,2.20
2019-05-23T19:01:58.454Z,1.80
2019-05-23T19:04:28.513Z,1.40
2019-05-23T19:06:58.242Z,1.70
2019-05-23T19:09:28.304Z,1.80
2019-05-23T19:11:59.043Z,1.63
2019-05-23T19:14:28.720Z,1.83
2019-05-23T19:17:02.033Z,1.60
2019-05-23T19:19:32.910Z,1.70
2019-05-23T19:22:04.469Z,2.90
2019-05-23T19:24:34.933Z,1.80
2019-05-23T19:27:06.389Z,2.00
2019-05-23T19:29:36.355Z,2.30
2019-05-23T19:32:07.414Z,1.80
2019-05-23T19:34:37.281Z,2.13
2019-05-23T19:37:09.028Z,2.10
2019-05-23T19:39:40.030Z,2.20
2019-05-23T19:42:10.524Z,2.20
2019-05-23T19:44:40.711Z,2.10
2019-05-23T19:47:11.576Z,2.23
2019-05-23T19:49:41.272Z,2.30
2019-05-23T19:52:12.643Z,2.40
2019-05-23T19:54:42.886Z,2.10
2019-05-23T19:57:12.505Z,3.30
2019-05-23T19:59:42.194Z,2.27
2019-05-23T20:02:16.195Z,2.00
2019-05-23T20:04:53.639Z,1.77
2019-05-23T20:07:23.877Z,2.13
2019-05-23T20:09:55.515Z,2.00
2019-05-23T20:12:27.931Z,2.40
2019-05-23T20:14:57.746Z,2.40
2019-05-23T20:17:27.626Z,1.90
2019-05-23T20:19:57.611Z,2.67
2019-05-23T20:22:28.701Z,2.80
2019-05-23T20:24:59.618Z,2.70
2019-05-23T20:27:29.509Z,3.07
2019-05-23T20:29:59.240Z,2.53
2019-05-23T20:32:28.885Z,2.70
2019-05-23T20:34:58.550Z,2.37
2019-05-23T20:37:30.392Z,2.47
2019-05-23T20:40:00.207Z,2.50
2019-05-23T20:42:30.337Z,2.63
2019-05-23T20:45:00.414Z,2.60
2019-05-23T20:47:31.246Z,2.43
2019-05-23T20:50:01.436Z,2.60
2019-05-23T20:52:31.895Z,2.73
2019-05-23T20:55:01.830Z,2.73
2019-05-23T20:57:31.932Z,2.97
2019-05-23T21:00:01.911Z,2.60
2019-05-23T21:02:31.815Z,2.93
2019-05-23T21:05:01.746Z,2.40
2019-05-23T21:07:32.404Z,2.67
2019-05-23T21:10:02.110Z,3.30
2019-05-23T21:12:32.337Z,2.43
2019-05-23T21:15:02.205Z,2.50
2019-05-23T21:17:33.917Z,2.50
2019-05-23T21:20:04.383Z,2.67
2019-05-23T21:22:39.741Z,2.30
2019-05-23T21:25:09.568Z,2.90
2019-05-23T21:27:39.180Z,2.90
2019-05-23T21:30:10.673Z,2.70
2019-05-23T21:32:40.405Z,2.77
2019-05-23T21:35:10.075Z,2.60
2019-05-23T21:37:39.951Z,2.63
2019-05-23T21:40:33.733Z,3.00
2019-05-23T21:43:03.414Z,3.10
2019-05-23T21:45:33.123Z,3.07
2019-05-23T21:48:03.036Z,3.43
2019-05-23T21:50:33.075Z,3.80
2019-05-23T21:53:03.493Z,2.57
2019-05-23T21:55:42.364Z,3.00
2019-05-23T21:58:17.323Z,2.93
2019-05-23T22:01:06.615Z,3.37
2019-05-23T22:03:39.379Z,3.13
2019-05-23T22:06:13.779Z,3.03
2019-05-23T22:08:45.966Z,3.00
2019-05-23T22:11:16.165Z,3.00
2019-05-23T22:13:49.876Z,3.27
2019-05-23T22:16:19.541Z,3.80
2019-05-23T22:18:49.208Z,4.07
2019-05-23T22:21:19.099Z,3.40
2019-05-23T22:23:49.153Z,3.43
2019-05-23T22:26:21.820Z,3.10
2019-05-23T22:28:54.147Z,3.57
2019-05-23T22:31:24.736Z,3.50
2019-05-23T22:33:58.911Z,3.53
2019-05-23T22:36:28.587Z,3.67
2019-05-23T22:38:58.196Z,3.13
2019-05-23T22:41:28.380Z,3.33
2019-05-23T22:43:58.033Z,3.83
2019-05-23T22:46:29.408Z,3.43
2019-05-23T22:49:01.387Z,3.60
2019-05-23T22:51:31.593Z,3.13
2019-05-23T22:54:01.218Z,3.47
2019-05-23T22:56:30.941Z,3.50
2019-05-23T22:59:00.543Z,3.40
2019-05-23T23:01:31.638Z,3.50
2019-05-23T23:04:01.260Z,3.77
2019-05-23T23:06:31.391Z,3.30
2019-05-23T23:09:03.157Z,3.53
2019-05-23T23:11:34.715Z,3.60
2019-05-23T23:14:04.451Z,3.57
2019-05-23T23:16:34.328Z,3.30
2019-05-23T23:19:04.011Z,4.20
2019-05-23T23:21:33.610Z,3.93
2019-05-23T23:24:03.128Z,3.60
2019-05-23T23:26:32.700Z,4.17
2019-05-23T23:29:03.510Z,3.50
2019-05-23T23:31:33.520Z,3.43
2019-05-23T23:34:06.124Z,3.47
2019-05-23T23:36:35.979Z,3.60
2019-05-23T23:39:07.500Z,3.10
2019-05-23T23:41:37.210Z,3.30
2019-05-23T23:44:08.983Z,3.30
2019-05-23T23:46:56.632Z,3.70
2019-05-23T23:49:44.253Z,3.10
2019-05-23T23:52:31.906Z,3.70
2019-05-23T23:55:19.150Z,2.97
2019-05-23T23:58:00.023Z,3.50
